This is the latest recevied weather packets stored in our database for station/object N7WLC. If no packets are shown the sender has not sent any weather packets the latest 10 day(s).
| Time | Temp. | Humidity | Pressure | Rain* | Wind** | Luminosity | Snow |
|---|---|---|---|---|---|---|---|
| 1777783705 | 13.89° C | 91% | 1012.6 hPa | 0 mm | 0 m/s | - | - |
| 1777781904 | 13.89° C | 93% | 1012.3 hPa | 0 mm | 0 m/s | - | - |
| 1777780104 | 13.33° C | 92% | 1011.6 hPa | 0 mm | 0 m/s | - | - |
| 1777778305 | 13.89° C | 89% | 1011.2 hPa | 0 mm | 0 m/s | - | - |
| 1777776505 | 15° C | 84% | 1011.1 hPa | 0 mm | 0 m/s | - | - |
| 1777774704 | 16.67° C | 79% | 1010.6 hPa | 0 mm | 0 m/s | - | - |
| 1777772905 | 17.78° C | 73% | 1010.8 hPa | 0 mm | 0 m/s | - | - |
| 1777771105 | 19.44° C | 68% | 1010.6 hPa | 0 mm | 0 m/s | - | - |
| 1777769304 | 20° C | 67% | 1010.8 hPa | 0 mm | 0 m/s | - | - |
| 1777767505 | 20.56° C | 64% | 1010.6 hPa | 0 mm | 0 m/s | - | - |
| 1777765705 | 21.11° C | 63% | 1010.9 hPa | 0 mm | 0 m/s | - | - |
| 1777763904 | 21.11° C | 62% | 1011.1 hPa | 0 mm | 0 m/s | - | - |
| 1777762104 | 20.56° C | 63% | 1011.7 hPa | 0 mm | 0 m/s | - | - |
| 1777760305 | 21.11° C | 62% | 1012.4 hPa | 0 mm | 0 m/s | - | - |
| 1777758504 | 22.78° C | 58% | 1012.8 hPa | 0 mm | 0.89 m/s, 243° | - | - |
| 1777756704 | 23.89° C | 54% | 1013 hPa | 0 mm | 0.89 m/s, 272° | - | - |
| 1777754905 | 23.89° C | 55% | 1013.2 hPa | 0 mm | 0 m/s | - | - |
| 1777753104 | 23.33° C | 59% | 1013.1 hPa | 0 mm | 0 m/s | - | - |
| 1777751304 | 25° C | 54% | 1013.6 hPa | 0 mm | 0 m/s | - | - |
| 1777749505 | 24.44° C | 54% | 1013.6 hPa | 0 mm | 0.45 m/s, 229° | - | - |
| 1777747705 | 23.33° C | 60% | 1013.9 hPa | 0 mm | 0 m/s | - | - |
| 1777745904 | 21.11° C | 64% | 1014.6 hPa | 0 mm | 0.45 m/s, 221° | - | - |
| 1777744105 | 18.89° C | 72% | 1014.3 hPa | 0 mm | 0.45 m/s, 314° | - | - |
| 1777742305 | 17.22° C | 78% | 1014.8 hPa | 0 mm | 0 m/s | - | - |
| 1777740504 | 16.67° C | 80% | 1014.9 hPa | 0 mm | 0 m/s | - | - |
* Rain latest hour (hover to see other rain measurements)
** Current wind speed in m/s (hover to see current wind gust speed)